createdAt,value
2016-09-28T00:00:39.354Z,1022.68
2016-09-28T00:01:39.305Z,1022.7
2016-09-28T00:02:39.262Z,1022.67
2016-09-28T00:03:39.206Z,1022.68
2016-09-28T00:04:39.207Z,1022.65
2016-09-28T00:05:39.140Z,1022.63
2016-09-28T00:06:39.090Z,1022.66
2016-09-28T00:07:39.035Z,1022.66
2016-09-28T00:08:38.967Z,1022.66
2016-09-28T00:09:38.934Z,1022.66
2016-09-28T00:10:38.873Z,1022.69
2016-09-28T00:11:38.827Z,1022.67
2016-09-28T00:12:38.778Z,1022.64
2016-09-28T00:13:38.726Z,1022.64
2016-09-28T00:14:38.710Z,1022.62
2016-09-28T00:15:38.636Z,1022.64
2016-09-28T00:16:38.626Z,1022.61
2016-09-28T00:17:38.533Z,1022.65
2016-09-28T00:18:38.486Z,1022.73
2016-09-28T00:19:38.439Z,1022.72
2016-09-28T00:20:38.388Z,1022.72
2016-09-28T00:21:38.342Z,1022.77
2016-09-28T00:22:38.296Z,1022.71
2016-09-28T00:23:38.249Z,1022.72
2016-09-28T00:24:38.405Z,1022.71
2016-09-28T00:25:38.153Z,1022.75
2016-09-28T00:26:38.101Z,1022.71
2016-09-28T00:27:38.055Z,1022.71
2016-09-28T00:28:38.003Z,1022.67
2016-09-28T00:29:37.956Z,1022.67
2016-09-28T00:30:37.912Z,1022.66
2016-09-28T00:31:37.859Z,1022.66
2016-09-28T00:33:37.758Z,1022.65
2016-09-28T00:34:37.711Z,1022.7
2016-09-28T00:35:37.867Z,1022.73
2016-09-28T00:36:37.615Z,1022.69
2016-09-28T00:37:37.568Z,1022.7
2016-09-28T00:38:37.523Z,1022.68
2016-09-28T00:39:37.480Z,1022.63
2016-09-28T00:40:37.428Z,1022.58
2016-09-28T00:41:37.379Z,1022.61
2016-09-28T00:42:37.332Z,1022.54
2016-09-28T00:43:37.284Z,1022.53
2016-09-28T00:44:37.233Z,1022.54
2016-09-28T00:45:37.182Z,1022.53
2016-09-28T00:46:37.136Z,1022.5
2016-09-28T00:47:37.085Z,1022.5
2016-09-28T00:48:37.035Z,1022.48
2016-09-28T00:49:36.996Z,1022.5
2016-09-28T00:50:37.003Z,1022.49
2016-09-28T00:51:36.898Z,1022.53
2016-09-28T00:52:36.841Z,1022.52
2016-09-28T00:53:36.804Z,1022.5
2016-09-28T00:54:36.745Z,1022.51
2016-09-28T00:55:36.899Z,1022.55
2016-09-28T00:56:36.655Z,1022.47
2016-09-28T00:57:36.601Z,1022.45
2016-09-28T00:58:36.560Z,1022.42
2016-09-28T00:59:36.513Z,1022.41
2016-09-28T01:00:36.455Z,1022.43
2016-09-28T01:01:36.609Z,1022.45
2016-09-28T01:02:36.356Z,1022.46
2016-09-28T01:03:36.311Z,1022.45
2016-09-28T01:04:36.268Z,1022.49
2016-09-28T01:05:36.211Z,1022.44
2016-09-28T01:06:36.164Z,1022.43
2016-09-28T01:07:36.118Z,1022.47
2016-09-28T01:08:36.065Z,1022.44
2016-09-28T01:09:36.023Z,1022.51
2016-09-28T01:10:36.174Z,1022.53
2016-09-28T01:11:35.924Z,1022.59
2016-09-28T01:12:35.872Z,1022.59
2016-09-28T01:13:35.829Z,1022.6
2016-09-28T01:14:35.985Z,1022.57
2016-09-28T01:15:35.733Z,1022.62
2016-09-28T01:16:35.684Z,1022.58
2016-09-28T01:17:35.631Z,1022.59
2016-09-28T01:18:35.583Z,1022.56
2016-09-28T01:19:35.535Z,1022.57
2016-09-28T01:20:35.489Z,1022.59
2016-09-28T01:21:35.443Z,1022.56
2016-09-28T01:22:35.391Z,1022.5
2016-09-28T01:23:35.339Z,1022.49
2016-09-28T01:24:35.296Z,1022.48
2016-09-28T01:25:35.245Z,1022.42
2016-09-28T01:26:35.196Z,1022.39
2016-09-28T01:27:35.141Z,1022.34
2016-09-28T01:28:35.298Z,1022.35
2016-09-28T01:29:35.060Z,1022.32
2016-09-28T01:30:34.996Z,1022.35
2016-09-28T01:31:34.953Z,1022.37
2016-09-28T01:32:34.902Z,1022.4
2016-09-28T01:33:34.854Z,1022.39
2016-09-28T01:34:34.803Z,1022.4
2016-09-28T01:35:34.760Z,1022.4
2016-09-28T01:36:34.928Z,1022.45
2016-09-28T01:37:34.666Z,1022.45
2016-09-28T01:38:34.611Z,1022.44
2016-09-28T01:39:34.635Z,1022.44
2016-09-28T01:40:34.512Z,1022.46
2016-09-28T01:41:34.462Z,1022.5
2016-09-28T01:42:34.418Z,1022.52
2016-09-28T01:43:34.373Z,1022.5
2016-09-28T01:44:34.323Z,1022.53
2016-09-28T01:45:34.273Z,1022.52
2016-09-28T01:46:34.229Z,1022.58
2016-09-28T01:47:34.182Z,1022.55
2016-09-28T01:48:34.180Z,1022.55
2016-09-28T01:49:34.104Z,1022.55
2016-09-28T01:50:34.036Z,1022.51
2016-09-28T01:51:33.978Z,1022.52
2016-09-28T01:52:33.925Z,1022.47
2016-09-28T01:53:33.879Z,1022.52
2016-09-28T01:54:33.836Z,1022.51
2016-09-28T01:55:33.782Z,1022.49
2016-09-28T01:56:33.733Z,1022.49
2016-09-28T01:57:33.686Z,1022.46
2016-09-28T01:58:33.644Z,1022.44
2016-09-28T01:59:33.792Z,1022.48
2016-09-28T02:00:33.747Z,1022.46
2016-09-28T02:01:33.496Z,1022.48
2016-09-28T02:02:33.443Z,1022.55
2016-09-28T02:03:33.396Z,1022.53
2016-09-28T02:04:33.342Z,1022.52
2016-09-28T02:05:33.307Z,1022.51
2016-09-28T02:06:33.250Z,1022.5
2016-09-28T02:07:33.399Z,1022.48
2016-09-28T02:08:33.354Z,1022.42
2016-09-28T02:09:33.105Z,1022.44
2016-09-28T02:10:33.051Z,1022.41
2016-09-28T02:11:33.017Z,1022.37
2016-09-28T02:12:32.952Z,1022.35
2016-09-28T02:13:32.921Z,1022.33
2016-09-28T02:14:32.860Z,1022.32
2016-09-28T02:15:32.811Z,1022.33
2016-09-28T02:16:32.762Z,1022.36
2016-09-28T02:17:32.708Z,1022.33
2016-09-28T02:18:32.669Z,1022.32
2016-09-28T02:19:32.610Z,1022.34
2016-09-28T02:20:32.578Z,1022.37
2016-09-28T02:21:32.519Z,1022.4
2016-09-28T02:22:32.475Z,1022.44
2016-09-28T02:23:32.418Z,1022.45
2016-09-28T02:24:32.373Z,1022.52
2016-09-28T02:25:32.319Z,1022.56
2016-09-28T02:26:32.271Z,1022.57
2016-09-28T02:27:32.234Z,1022.58
2016-09-28T02:28:32.177Z,1022.61
2016-09-28T02:29:32.127Z,1022.59
2016-09-28T02:30:32.080Z,1022.59
2016-09-28T02:31:32.031Z,1022.56
2016-09-28T02:32:32.186Z,1022.52
2016-09-28T02:33:31.934Z,1022.54
2016-09-28T02:34:31.882Z,1022.57
2016-09-28T02:35:31.832Z,1022.57
2016-09-28T02:36:31.782Z,1022.64
2016-09-28T02:37:31.736Z,1022.62
2016-09-28T02:38:31.894Z,1022.63
2016-09-28T02:39:31.638Z,1022.65
2016-09-28T02:40:31.589Z,1022.62
2016-09-28T02:41:31.547Z,1022.62
2016-09-28T02:42:31.493Z,1022.6
2016-09-28T02:43:31.443Z,1022.63
2016-09-28T02:44:31.598Z,1022.64
2016-09-28T02:45:31.349Z,1022.59
2016-09-28T02:46:31.301Z,1022.52
2016-09-28T02:47:31.255Z,1022.43
2016-09-28T02:48:31.203Z,1022.38
2016-09-28T02:49:31.156Z,1022.34
2016-09-28T02:50:31.305Z,1022.28
2016-09-28T02:51:31.259Z,1022.26
2016-09-28T02:52:31.016Z,1022.24
2016-09-28T02:53:30.957Z,1022.18
2016-09-28T02:54:30.909Z,1022.19
2016-09-28T02:55:30.865Z,1022.23
2016-09-28T02:56:30.815Z,1022.21
2016-09-28T02:57:30.765Z,1022.21
2016-09-28T02:58:30.719Z,1022.19
2016-09-28T02:59:30.871Z,1022.18
2016-09-28T03:00:30.624Z,1022.21
2016-09-28T03:01:30.571Z,1022.27
2016-09-28T03:02:30.530Z,1022.27
2016-09-28T03:03:30.474Z,1022.34
2016-09-28T03:04:30.430Z,1022.33
2016-09-28T03:05:30.579Z,1022.32
2016-09-28T03:06:30.330Z,1022.27
2016-09-28T03:07:30.285Z,1022.29
2016-09-28T03:08:30.230Z,1022.28
2016-09-28T03:09:30.186Z,1022.33
2016-09-28T03:10:30.135Z,1022.25
2016-09-28T03:11:30.087Z,1022.26
2016-09-28T03:12:30.040Z,1022.19
2016-09-28T03:13:29.989Z,1022.17
2016-09-28T03:14:29.939Z,1022.19
2016-09-28T03:15:29.902Z,1022.18
2016-09-28T03:16:29.839Z,1022.18
2016-09-28T03:17:29.798Z,1022.15
2016-09-28T03:18:29.960Z,1022.13
2016-09-28T03:19:29.698Z,1022.1
2016-09-28T03:20:29.857Z,1022.06
2016-09-28T03:21:29.608Z,1022.06
2016-09-28T03:22:29.552Z,1022.09
2016-09-28T03:23:29.510Z,1022.09
2016-09-28T03:24:29.459Z,1022.1
2016-09-28T03:25:29.423Z,1022.1
2016-09-28T03:26:29.361Z,1022.13
2016-09-28T03:27:29.314Z,1022.1
2016-09-28T03:28:29.264Z,1022.12
2016-09-28T03:29:29.217Z,1022.08
2016-09-28T03:30:29.166Z,1022.12
2016-09-28T03:31:29.130Z,1022.1
2016-09-28T03:32:29.122Z,1022.1
2016-09-28T03:33:29.026Z,1022.03
2016-09-28T03:34:29.032Z,1022.03
2016-09-28T03:35:28.927Z,1021.98
2016-09-28T03:36:28.875Z,1021.93
2016-09-28T03:37:28.828Z,1021.9
2016-09-28T03:38:28.780Z,1021.87
2016-09-28T03:39:28.743Z,1021.87
2016-09-28T03:40:28.682Z,1021.86
2016-09-28T03:41:28.637Z,1021.92
2016-09-28T03:42:28.592Z,1021.93
2016-09-28T03:43:28.539Z,1021.97
2016-09-28T03:44:28.697Z,1021.95
2016-09-28T03:45:28.438Z,1021.92
2016-09-28T03:46:28.403Z,1021.93
2016-09-28T03:47:28.347Z,1021.95
2016-09-28T03:48:28.298Z,1021.92
2016-09-28T03:49:28.248Z,1021.94
2016-09-28T03:50:28.202Z,1021.98
2016-09-28T03:51:28.149Z,1021.96
2016-09-28T03:52:28.108Z,1021.93
2016-09-28T03:53:28.256Z,1021.96
2016-09-28T03:54:28.010Z,1021.93
2016-09-28T03:55:28.363Z,1021.92
2016-09-28T03:56:28.118Z,1021.9
2016-09-28T03:57:27.869Z,1021.91
2016-09-28T03:58:27.810Z,1021.89
2016-09-28T03:59:27.763Z,1021.9
2016-09-28T04:00:27.723Z,1021.87
2016-09-28T04:01:27.674Z,1021.88
2016-09-28T04:02:27.826Z,1021.88
2016-09-28T04:03:27.774Z,1021.85
2016-09-28T04:04:27.526Z,1021.84
2016-09-28T04:05:27.471Z,1021.81
2016-09-28T04:06:27.428Z,1021.83
2016-09-28T04:07:27.379Z,1021.86
2016-09-28T04:08:27.334Z,1021.84
2016-09-28T04:09:27.283Z,1021.8
2016-09-28T04:10:27.234Z,1021.81
2016-09-28T04:11:27.186Z,1021.8
2016-09-28T04:12:27.143Z,1021.74
2016-09-28T04:13:27.094Z,1021.76
2016-09-28T04:14:27.041Z,1021.78
2016-09-28T04:15:26.990Z,1021.75
2016-09-28T04:16:26.944Z,1021.75
2016-09-28T04:17:26.897Z,1021.68
2016-09-28T04:18:26.851Z,1021.72
2016-09-28T04:19:26.803Z,1021.64
2016-09-28T04:20:26.756Z,1021.61
2016-09-28T04:21:26.697Z,1021.6
2016-09-28T04:22:26.653Z,1021.57
2016-09-28T04:23:26.611Z,1021.57
2016-09-28T04:24:26.555Z,1021.52
2016-09-28T04:25:26.512Z,1021.5
2016-09-28T04:26:26.458Z,1021.51
2016-09-28T04:27:26.407Z,1021.53
2016-09-28T04:28:26.366Z,1021.53
2016-09-28T04:29:26.310Z,1021.54
2016-09-28T04:30:26.268Z,1021.5
2016-09-28T04:31:26.216Z,1021.55
2016-09-28T04:32:26.176Z,1021.57
2016-09-28T04:33:26.121Z,1021.62
2016-09-28T04:34:26.073Z,1021.67
2016-09-28T04:35:26.026Z,1021.65
2016-09-28T04:36:25.973Z,1021.65
2016-09-28T04:37:25.922Z,1021.67
2016-09-28T04:38:25.876Z,1021.67
2016-09-28T04:39:25.837Z,1021.67
2016-09-28T04:40:25.778Z,1021.64
2016-09-28T04:41:25.730Z,1021.64
2016-09-28T04:42:25.678Z,1021.6
2016-09-28T04:43:25.634Z,1021.61
2016-09-28T04:44:25.591Z,1021.6
2016-09-28T04:45:25.539Z,1021.6
2016-09-28T04:46:25.490Z,1021.57
2016-09-28T04:47:25.442Z,1021.57
2016-09-28T04:48:25.390Z,1021.56
2016-09-28T04:49:25.339Z,1021.53
2016-09-28T04:50:25.492Z,1021.54
2016-09-28T04:51:25.237Z,1021.53
2016-09-28T04:52:25.198Z,1021.49
2016-09-28T04:53:25.347Z,1021.48
2016-09-28T04:54:25.295Z,1021.48
2016-09-28T04:55:25.048Z,1021.49
2016-09-28T04:56:24.999Z,1021.51
2016-09-28T04:57:24.949Z,1021.54
2016-09-28T04:58:24.909Z,1021.56
2016-09-28T04:59:24.863Z,1021.52
2016-09-28T05:00:24.806Z,1021.55
2016-09-28T05:01:24.753Z,1021.54
2016-09-28T05:02:24.906Z,1021.61
2016-09-28T05:03:24.653Z,1021.64
2016-09-28T05:04:24.616Z,1021.6
2016-09-28T05:05:24.558Z,1021.59
2016-09-28T05:06:24.520Z,1021.6
2016-09-28T05:07:24.459Z,1021.58
2016-09-28T05:08:24.415Z,1021.59
2016-09-28T05:09:24.358Z,1021.59
2016-09-28T05:10:24.311Z,1021.58
2016-09-28T05:11:24.466Z,1021.56
2016-09-28T05:12:24.233Z,1021.54
2016-09-28T05:13:24.182Z,1021.55
2016-09-28T05:14:24.143Z,1021.55
2016-09-28T05:15:24.110Z,1021.56
2016-09-28T05:16:24.022Z,1021.53
2016-09-28T05:17:23.972Z,1021.55
2016-09-28T05:18:23.924Z,1021.52
2016-09-28T05:19:23.870Z,1021.49
2016-09-28T05:20:23.832Z,1021.54
2016-09-28T05:21:23.781Z,1021.53
2016-09-28T05:22:23.723Z,1021.48
2016-09-28T05:23:23.680Z,1021.47
2016-09-28T05:24:23.629Z,1021.57
2016-09-28T05:25:23.583Z,1021.58
2016-09-28T05:26:23.534Z,1021.62
2016-09-28T05:27:23.488Z,1021.65
2016-09-28T05:28:23.437Z,1021.62
2016-09-28T05:29:23.387Z,1021.68
2016-09-28T05:30:23.341Z,1021.64
2016-09-28T05:31:23.291Z,1021.67
2016-09-28T05:32:23.243Z,1021.69
2016-09-28T05:33:23.195Z,1021.66
2016-09-28T05:34:23.149Z,1021.69
2016-09-28T05:35:23.102Z,1021.73
2016-09-28T05:36:23.050Z,1021.71
2016-09-28T05:37:23.012Z,1021.7
2016-09-28T05:38:23.152Z,1021.66
2016-09-28T05:39:22.901Z,1021.62
2016-09-28T05:40:22.857Z,1021.63
2016-09-28T05:41:22.814Z,1021.58
2016-09-28T05:42:22.758Z,1021.59
2016-09-28T05:43:22.711Z,1021.61
2016-09-28T05:44:22.665Z,1021.59
2016-09-28T05:45:22.611Z,1021.63
2016-09-28T05:46:22.590Z,1021.64
2016-09-28T05:47:22.516Z,1021.71
2016-09-28T05:48:22.476Z,1021.75
2016-09-28T05:49:22.425Z,1021.79
2016-09-28T05:50:22.375Z,1021.82
2016-09-28T05:51:22.328Z,1021.86
2016-09-28T05:52:22.281Z,1021.86
2016-09-28T05:53:22.230Z,1021.91
2016-09-28T05:54:22.191Z,1021.87
2016-09-28T05:55:22.132Z,1021.83
2016-09-28T05:56:22.089Z,1021.78
2016-09-28T05:57:22.039Z,1021.82
2016-09-28T05:58:21.996Z,1021.87
2016-09-28T05:59:22.143Z,1021.88
2016-09-28T06:00:21.900Z,1021.87
2016-09-28T06:01:21.842Z,1021.88
2016-09-28T06:02:21.796Z,1021.87
2016-09-28T06:03:21.755Z,1021.86
2016-09-28T06:04:21.705Z,1021.85
2016-09-28T06:05:21.651Z,1021.91
2016-09-28T06:06:21.603Z,1021.95
2016-09-28T06:07:21.556Z,1021.98
2016-09-28T06:08:21.503Z,1021.96
2016-09-28T06:09:21.456Z,1021.98
2016-09-28T06:10:21.410Z,1021.98
2016-09-28T06:11:21.362Z,1022.01
2016-09-28T06:12:21.312Z,1022.01
2016-09-28T06:13:21.268Z,1022.03
2016-09-28T06:14:21.217Z,1022.08
2016-09-28T06:15:21.173Z,1022.02
2016-09-28T06:16:21.321Z,1022
2016-09-28T06:17:21.069Z,1022.03
2016-09-28T06:18:21.028Z,1022.06
2016-09-28T06:19:20.982Z,1022.08
2016-09-28T06:20:20.931Z,1022.08
2016-09-28T06:21:20.878Z,1022.11
2016-09-28T06:22:21.032Z,1022.16
2016-09-28T06:23:20.784Z,1022.18
2016-09-28T06:24:20.731Z,1022.24
2016-09-28T06:26:20.648Z,1022.32
2016-09-28T06:27:20.595Z,1022.31
2016-09-28T06:28:20.541Z,1022.34
2016-09-28T06:29:20.498Z,1022.32
2016-09-28T06:30:20.648Z,1022.37
2016-09-28T06:31:20.396Z,1022.37
2016-09-28T06:32:20.355Z,1022.33
2016-09-28T06:33:20.306Z,1022.33
2016-09-28T06:34:20.456Z,1022.38
2016-09-28T06:35:20.213Z,1022.34
2016-09-28T06:36:20.166Z,1022.39
2016-09-28T06:37:20.110Z,1022.42
2016-09-28T06:38:20.059Z,1022.41
2016-09-28T06:39:20.026Z,1022.41
2016-09-28T06:40:19.964Z,1022.39
2016-09-28T06:41:19.925Z,1022.42
2016-09-28T06:42:19.873Z,1022.39
2016-09-28T06:43:19.820Z,1022.39
2016-09-28T06:44:19.785Z,1022.37
2016-09-28T06:45:19.733Z,1022.33
2016-09-28T06:46:19.679Z,1022.28
2016-09-28T06:47:19.628Z,1022.28
2016-09-28T06:48:19.785Z,1022.27
2016-09-28T06:49:19.541Z,1022.29
2016-09-28T06:50:19.685Z,1022.31
2016-09-28T06:51:19.443Z,1022.31
2016-09-28T06:52:19.399Z,1022.3
2016-09-28T06:53:19.545Z,1022.29
2016-09-28T06:54:19.900Z,1022.25
2016-09-28T06:55:19.267Z,1022.28
2016-09-28T06:56:19.204Z,1022.28
2016-09-28T06:57:19.360Z,1022.27
2016-09-28T06:58:19.103Z,1022.24
2016-09-28T06:59:19.057Z,1022.26
2016-09-28T07:00:19.009Z,1022.28
2016-09-28T07:01:18.967Z,1022.33
2016-09-28T07:02:18.912Z,1022.29
2016-09-28T07:03:18.861Z,1022.24
2016-09-28T07:04:18.817Z,1022.26
2016-09-28T07:05:18.765Z,1022.29
2016-09-28T07:06:18.725Z,1022.29
2016-09-28T07:07:18.676Z,1022.29
2016-09-28T07:08:18.629Z,1022.29
2016-09-28T07:09:18.582Z,1022.31
2016-09-28T07:10:18.532Z,1022.3
2016-09-28T07:11:18.496Z,1022.3
2016-09-28T07:12:18.633Z,1022.26
2016-09-28T07:13:18.386Z,1022.23
2016-09-28T07:14:18.341Z,1022.21
2016-09-28T07:15:18.310Z,1022.22
2016-09-28T07:16:18.244Z,1022.24
2016-09-28T07:17:18.202Z,1022.22
2016-09-28T07:18:18.148Z,1022.29
2016-09-28T07:19:18.098Z,1022.32
2016-09-28T07:20:18.047Z,1022.41
2016-09-28T07:21:18.002Z,1022.45
2016-09-28T07:22:17.994Z,1022.5
2016-09-28T07:23:18.111Z,1022.49
2016-09-28T07:24:18.092Z,1022.5
2016-09-28T07:25:17.811Z,1022.52
2016-09-28T07:26:17.766Z,1022.53
2016-09-28T07:27:17.715Z,1022.5
2016-09-28T07:28:17.671Z,1022.56
2016-09-28T07:29:17.617Z,1022.54
2016-09-28T07:30:17.576Z,1022.54
2016-09-28T07:31:17.520Z,1022.55
2016-09-28T07:32:17.474Z,1022.55
2016-09-28T07:33:17.639Z,1022.58
2016-09-28T07:34:17.378Z,1022.58
2016-09-28T07:35:17.334Z,1022.6
2016-09-28T07:36:17.290Z,1022.59
2016-09-28T07:37:17.242Z,1022.65
2016-09-28T07:38:17.185Z,1022.65
2016-09-28T07:39:17.363Z,1022.68
2016-09-28T07:40:17.292Z,1022.7
2016-09-28T07:41:17.242Z,1022.72
2016-09-28T07:42:16.996Z,1022.7
2016-09-28T07:43:16.946Z,1022.65
2016-09-28T07:44:16.909Z,1022.65
2016-09-28T07:45:16.859Z,1022.63
2016-09-28T07:46:17.000Z,1022.66
2016-09-28T07:47:16.952Z,1022.66
2016-09-28T07:48:16.714Z,1022.64
2016-09-28T07:49:16.663Z,1022.68
2016-09-28T07:50:16.611Z,1022.69
2016-09-28T07:51:16.573Z,1022.7
2016-09-28T07:52:16.727Z,1022.72
2016-09-28T07:53:16.473Z,1022.74
2016-09-28T07:54:16.616Z,1022.69
2016-09-28T07:55:16.567Z,1022.76
2016-09-28T07:56:16.386Z,1022.74
2016-09-28T07:57:16.277Z,1022.8
2016-09-28T07:58:16.239Z,1022.81
2016-09-28T07:59:16.178Z,1022.77
2016-09-28T08:00:16.136Z,1022.82
2016-09-28T08:01:16.086Z,1022.78
2016-09-28T08:02:16.036Z,1022.8
2016-09-28T08:03:15.991Z,1022.78
2016-09-28T08:04:16.144Z,1022.78
2016-09-28T08:05:15.898Z,1022.77
2016-09-28T08:06:15.848Z,1022.73
2016-09-28T08:07:15.797Z,1022.72
2016-09-28T08:08:15.954Z,1022.73
2016-09-28T08:09:15.713Z,1022.74
2016-09-28T08:10:15.661Z,1022.71
2016-09-28T08:11:15.618Z,1022.72
2016-09-28T08:12:15.564Z,1022.73
2016-09-28T08:13:15.512Z,1022.69
2016-09-28T08:14:15.463Z,1022.75
2016-09-28T08:15:15.435Z,1022.69
2016-09-28T08:16:15.372Z,1022.71
2016-09-28T08:17:15.323Z,1022.74
2016-09-28T08:18:15.271Z,1022.69
2016-09-28T08:19:15.237Z,1022.68
2016-09-28T08:20:15.184Z,1022.61
2016-09-28T08:21:15.135Z,1022.64
2016-09-28T08:22:15.088Z,1022.6
2016-09-28T08:23:15.239Z,1022.58
2016-09-28T08:24:14.993Z,1022.61
2016-09-28T08:25:15.142Z,1022.64
2016-09-28T08:26:15.106Z,1022.64
2016-09-28T08:27:14.847Z,1022.6
2016-09-28T08:28:14.798Z,1022.58
2016-09-28T08:29:14.745Z,1022.6
2016-09-28T08:30:14.708Z,1022.59
2016-09-28T08:31:14.657Z,1022.61
2016-09-28T08:32:14.688Z,1022.6
2016-09-28T08:33:14.766Z,1022.62
2016-09-28T08:34:14.593Z,1022.64
2016-09-28T08:35:14.474Z,1022.66
2016-09-28T08:36:14.425Z,1022.62
2016-09-28T08:37:14.371Z,1022.62
2016-09-28T08:38:14.324Z,1022.59
2016-09-28T08:39:14.276Z,1022.64
2016-09-28T08:40:14.332Z,1022.66
2016-09-28T08:41:14.275Z,1022.63
2016-09-28T08:42:14.131Z,1022.62
2016-09-28T08:43:14.280Z,1022.6
2016-09-28T08:44:14.068Z,1022.65
2016-09-28T08:45:13.987Z,1022.63
2016-09-28T08:46:13.944Z,1022.65
2016-09-28T08:47:13.895Z,1022.67
2016-09-28T08:48:14.062Z,1022.66
2016-09-28T08:49:13.801Z,1022.73
2016-09-28T08:50:13.751Z,1022.68
2016-09-28T08:51:13.702Z,1022.76
2016-09-28T08:52:13.667Z,1022.69
2016-09-28T08:53:13.809Z,1022.75
2016-09-28T08:54:13.559Z,1022.73
2016-09-28T08:55:13.525Z,1022.75
2016-09-28T08:56:13.481Z,1022.8
2016-09-28T08:57:13.421Z,1022.76
2016-09-28T08:58:13.393Z,1022.77
2016-09-28T08:59:13.328Z,1022.77
2016-09-28T09:00:13.298Z,1022.73
2016-09-28T09:01:13.232Z,1022.74
2016-09-28T09:02:13.178Z,1022.73
2016-09-28T09:03:13.143Z,1022.71
2016-09-28T09:04:13.091Z,1022.67
2016-09-28T09:05:13.037Z,1022.65
2016-09-28T09:06:13.002Z,1022.6
2016-09-28T09:07:12.949Z,1022.67
2016-09-28T09:08:12.937Z,1022.69
2016-09-28T09:09:12.853Z,1022.72
2016-09-28T09:10:12.803Z,1022.72
2016-09-28T09:11:12.762Z,1022.7
2016-09-28T09:12:12.722Z,1022.71
2016-09-28T09:13:12.695Z,1022.66
2016-09-28T09:14:12.615Z,1022.7
2016-09-28T09:15:12.584Z,1022.71
2016-09-28T09:16:12.789Z,1022.76
2016-09-28T09:17:12.478Z,1022.73
2016-09-28T09:18:12.420Z,1022.72
2016-09-28T09:19:12.381Z,1022.71
2016-09-28T09:20:12.342Z,1022.72
2016-09-28T09:21:12.286Z,1022.71
2016-09-28T09:22:12.239Z,1022.73
2016-09-28T09:23:12.194Z,1022.72
2016-09-28T09:24:12.161Z,1022.73
2016-09-28T09:25:12.102Z,1022.69
2016-09-28T09:26:12.127Z,1022.65
2016-09-28T09:27:11.999Z,1022.65
2016-09-28T09:28:11.961Z,1022.65
2016-09-28T09:29:11.909Z,1022.65
2016-09-28T09:30:11.865Z,1022.67
2016-09-28T09:31:11.808Z,1022.64
2016-09-28T09:32:11.770Z,1022.57
2016-09-28T09:33:11.719Z,1022.53
2016-09-28T09:34:11.675Z,1022.56
2016-09-28T09:35:11.621Z,1022.52
2016-09-28T09:36:11.578Z,1022.55
2016-09-28T09:37:11.533Z,1022.5
2016-09-28T09:38:11.486Z,1022.51
2016-09-28T09:39:11.442Z,1022.48
2016-09-28T09:40:11.392Z,1022.46
2016-09-28T09:41:11.345Z,1022.48
2016-09-28T09:42:11.296Z,1022.52
2016-09-28T09:43:11.250Z,1022.52
2016-09-28T09:44:11.205Z,1022.5
2016-09-28T09:45:11.167Z,1022.5
2016-09-28T09:46:11.111Z,1022.46
2016-09-28T09:47:11.062Z,1022.45
2016-09-28T09:48:11.013Z,1022.47
2016-09-28T09:49:10.964Z,1022.45
2016-09-28T09:50:10.923Z,1022.47
2016-09-28T09:51:10.872Z,1022.46
2016-09-28T09:52:10.830Z,1022.4
2016-09-28T09:53:10.777Z,1022.42
2016-09-28T09:54:10.946Z,1022.45
2016-09-28T09:55:10.689Z,1022.42
2016-09-28T09:56:10.645Z,1022.49
2016-09-28T09:57:10.601Z,1022.42
2016-09-28T09:58:10.542Z,1022.4
2016-09-28T09:59:10.506Z,1022.42
2016-09-28T10:00:10.458Z,1022.47
2016-09-28T10:01:10.407Z,1022.46
2016-09-28T10:02:10.360Z,1022.45
2016-09-28T10:03:10.316Z,1022.45
2016-09-28T10:04:10.278Z,1022.42
2016-09-28T10:05:10.220Z,1022.42
2016-09-28T10:06:10.177Z,1022.45
2016-09-28T10:07:10.138Z,1022.42
2016-09-28T10:08:10.082Z,1022.39
2016-09-28T10:09:10.037Z,1022.38
2016-09-28T10:10:09.992Z,1022.28
2016-09-28T10:11:09.939Z,1022.29
2016-09-28T10:12:09.894Z,1022.31
2016-09-28T10:13:10.053Z,1022.31
2016-09-28T10:14:10.042Z,1022.38
2016-09-28T10:15:09.960Z,1022.34
2016-09-28T10:16:09.711Z,1022.37
2016-09-28T10:17:09.668Z,1022.41
2016-09-28T10:18:09.622Z,1022.41
2016-09-28T10:19:09.580Z,1022.41
2016-09-28T10:20:09.536Z,1022.48
2016-09-28T10:21:09.481Z,1022.45
2016-09-28T10:22:09.427Z,1022.48
2016-09-28T10:23:09.381Z,1022.42
2016-09-28T10:24:09.336Z,1022.34
2016-09-28T10:25:09.299Z,1022.22
2016-09-28T10:26:09.259Z,1022.16
2016-09-28T10:27:09.248Z,1022.2
2016-09-28T10:28:09.157Z,1022.18
2016-09-28T10:29:09.112Z,1022.15
2016-09-28T10:30:09.099Z,1022.1
2016-09-28T10:31:09.021Z,1022.07
2016-09-28T10:32:08.968Z,1022.07
2016-09-28T10:33:08.921Z,1022.06
2016-09-28T10:34:08.890Z,1022.04
2016-09-28T10:35:10.773Z,1022.07
2016-09-28T10:36:08.789Z,1022.08
2016-09-28T10:37:08.749Z,1022.09
2016-09-28T10:38:08.694Z,1022.07
2016-09-28T10:39:08.647Z,1022.06
2016-09-28T10:40:08.594Z,1022.02
2016-09-28T10:41:08.553Z,1022.03
2016-09-28T10:42:08.501Z,1021.96
2016-09-28T10:43:08.447Z,1022.06
2016-09-28T10:44:08.405Z,1022.01
2016-09-28T10:45:08.363Z,1022.01
2016-09-28T10:46:08.520Z,1021.98
2016-09-28T10:47:08.469Z,1021.89
2016-09-28T10:48:08.230Z,1021.94
2016-09-28T10:49:08.194Z,1021.96
2016-09-28T10:50:08.139Z,1022.02
2016-09-28T10:51:08.286Z,1021.99
2016-09-28T10:52:08.243Z,1022.05
2016-09-28T10:53:08.004Z,1022
2016-09-28T10:54:07.954Z,1021.91
2016-09-28T10:55:07.908Z,1022.02
2016-09-28T10:56:07.860Z,1022.08
2016-09-28T10:57:07.810Z,1022.1
2016-09-28T10:58:07.762Z,1022.13
2016-09-28T10:59:07.714Z,1022.1
2016-09-28T11:00:07.865Z,1022.06
2016-09-28T11:01:07.627Z,1022
2016-09-28T11:02:07.784Z,1021.98
2016-09-28T11:03:07.731Z,1021.98
2016-09-28T11:04:07.493Z,1022.03
2016-09-28T11:05:07.640Z,1022.02
2016-09-28T11:06:07.394Z,1022
2016-09-28T11:07:07.558Z,1021.97
2016-09-28T11:08:07.719Z,1022.03
2016-09-28T11:09:07.291Z,1021.93
2016-09-28T11:10:07.234Z,1021.93
2016-09-28T11:11:07.180Z,1021.96
2016-09-28T11:12:07.136Z,1021.92
2016-09-28T11:13:07.094Z,1021.92
2016-09-28T11:14:07.053Z,1021.88
2016-09-28T11:15:07.095Z,1021.9
2016-09-28T11:16:06.953Z,1021.87
2016-09-28T11:17:06.915Z,1021.93
2016-09-28T11:18:06.863Z,1021.9
2016-09-28T11:19:06.813Z,1021.86
2016-09-28T11:20:06.775Z,1021.85
2016-09-28T11:21:06.931Z,1021.83
2016-09-28T11:22:06.686Z,1021.86
2016-09-28T11:23:06.652Z,1021.89
2016-09-28T11:24:06.597Z,1021.86
2016-09-28T11:25:06.549Z,1021.74
2016-09-28T11:26:06.501Z,1021.81
2016-09-28T11:27:06.468Z,1021.84
2016-09-28T11:28:06.411Z,1021.74
2016-09-28T11:29:06.364Z,1021.86
2016-09-28T11:30:06.328Z,1021.82
2016-09-28T11:31:06.489Z,1021.84
2016-09-28T11:32:06.321Z,1021.78
2016-09-28T11:33:06.183Z,1021.8
2016-09-28T11:34:06.333Z,1021.86
2016-09-28T11:35:06.920Z,1021.87
2016-09-28T11:36:06.054Z,1021.82
2016-09-28T11:37:06.211Z,1021.89
2016-09-28T11:38:05.967Z,1021.85
2016-09-28T11:39:05.913Z,1021.86
2016-09-28T11:40:06.074Z,1021.82
2016-09-28T11:41:05.840Z,1021.82
2016-09-28T11:43:05.743Z,1021.76
2016-09-28T11:44:05.906Z,1021.78
2016-09-28T11:45:05.651Z,1021.75
2016-09-28T11:46:05.608Z,1021.72
2016-09-28T11:47:05.557Z,1021.74
2016-09-28T11:48:05.512Z,1021.74
2016-09-28T11:49:06.667Z,1021.63
2016-09-28T11:50:05.424Z,1021.66
2016-09-28T11:51:05.579Z,1021.55
2016-09-28T11:52:05.532Z,1021.57
2016-09-28T11:53:05.290Z,1021.59
2016-09-28T11:54:05.248Z,1021.57
2016-09-28T11:55:05.202Z,1021.57
2016-09-28T11:56:05.157Z,1021.56
2016-09-28T11:57:05.106Z,1021.55
2016-09-28T11:58:05.065Z,1021.53
2016-09-28T11:59:05.031Z,1021.51
2016-09-28T12:00:04.978Z,1021.5
2016-09-28T12:01:04.934Z,1021.41
2016-09-28T12:02:04.953Z,1021.4
2016-09-28T12:03:04.843Z,1021.39
2016-09-28T12:04:04.800Z,1021.41
2016-09-28T12:05:04.759Z,1021.43
2016-09-28T12:06:04.720Z,1021.42
2016-09-28T12:07:04.671Z,1021.39
2016-09-28T12:08:04.663Z,1021.37
2016-09-28T12:09:04.597Z,1021.29
2016-09-28T12:10:04.628Z,1021.31
2016-09-28T12:11:04.490Z,1021.33